sensor_id;sensor_type;location;lat;lon;timestamp;P1;durP1;ratioP1;P2;durP2;ratioP2
13415;SDS011;6779;50.150;8.680;2022-07-15T00:00:09;1.00;;;1.00;;
13415;SDS011;6779;50.150;8.680;2022-07-15T00:02:36;1.37;;;1.20;;
13415;SDS011;6779;50.150;8.680;2022-07-15T00:05:03;1.70;;;1.40;;
13415;SDS011;6779;50.150;8.680;2022-07-15T00:07:30;2.77;;;1.17;;
13415;SDS011;6779;50.150;8.680;2022-07-15T00:09:56;3.00;;;1.10;;
13415;SDS011;6779;50.150;8.680;2022-07-15T00:12:43;1.23;;;1.10;;
13415;SDS011;6779;50.150;8.680;2022-07-15T00:15:14;1.50;;;1.20;;
13415;SDS011;6779;50.150;8.680;2022-07-15T00:17:41;5.97;;;3.33;;
13415;SDS011;6779;50.150;8.680;2022-07-15T00:20:07;5.90;;;4.10;;
13415;SDS011;6779;50.150;8.680;2022-07-15T00:22:35;2.33;;;1.60;;
13415;SDS011;6779;50.150;8.680;2022-07-15T00:25:00;4.60;;;1.37;;
13415;SDS011;6779;50.150;8.680;2022-07-15T00:27:26;1.87;;;1.47;;
13415;SDS011;6779;50.150;8.680;2022-07-15T00:29:52;2.83;;;1.30;;
13415;SDS011;6779;50.150;8.680;2022-07-15T00:32:18;1.60;;;1.13;;
13415;SDS011;6779;50.150;8.680;2022-07-15T00:34:43;1.27;;;1.17;;
13415;SDS011;6779;50.150;8.680;2022-07-15T00:37:09;1.30;;;0.93;;
13415;SDS011;6779;50.150;8.680;2022-07-15T00:39:35;1.80;;;1.20;;
13415;SDS011;6779;50.150;8.680;2022-07-15T00:42:01;1.97;;;1.00;;
13415;SDS011;6779;50.150;8.680;2022-07-15T00:44:27;2.73;;;1.00;;
13415;SDS011;6779;50.150;8.680;2022-07-15T00:46:53;1.53;;;1.00;;
13415;SDS011;6779;50.150;8.680;2022-07-15T00:49:18;1.03;;;1.00;;
13415;SDS011;6779;50.150;8.680;2022-07-15T00:51:51;1.40;;;1.00;;
13415;SDS011;6779;50.150;8.680;2022-07-15T00:54:23;4.63;;;1.17;;
13415;SDS011;6779;50.150;8.680;2022-07-15T00:56:51;1.20;;;1.07;;
13415;SDS011;6779;50.150;8.680;2022-07-15T00:59:22;1.33;;;1.23;;
13415;SDS011;6779;50.150;8.680;2022-07-15T01:01:51;1.53;;;1.30;;
13415;SDS011;6779;50.150;8.680;2022-07-15T01:04:18;3.07;;;1.13;;
13415;SDS011;6779;50.150;8.680;2022-07-15T01:06:46;1.07;;;0.97;;
13415;SDS011;6779;50.150;8.680;2022-07-15T01:09:11;1.70;;;1.50;;
13415;SDS011;6779;50.150;8.680;2022-07-15T01:11:37;2.90;;;1.20;;
13415;SDS011;6779;50.150;8.680;2022-07-15T01:14:03;2.07;;;1.20;;
13415;SDS011;6779;50.150;8.680;2022-07-15T01:16:29;1.20;;;1.10;;
13415;SDS011;6779;50.150;8.680;2022-07-15T01:18:55;1.10;;;1.03;;
13415;SDS011;6779;50.150;8.680;2022-07-15T01:21:21;2.77;;;1.03;;
13415;SDS011;6779;50.150;8.680;2022-07-15T01:23:47;1.30;;;1.20;;
13415;SDS011;6779;50.150;8.680;2022-07-15T01:26:13;3.80;;;1.20;;
13415;SDS011;6779;50.150;8.680;2022-07-15T01:28:42;1.07;;;1.00;;
13415;SDS011;6779;50.150;8.680;2022-07-15T01:31:08;1.87;;;1.10;;
13415;SDS011;6779;50.150;8.680;2022-07-15T01:33:34;1.17;;;1.07;;
13415;SDS011;6779;50.150;8.680;2022-07-15T01:36:00;2.33;;;1.30;;
13415;SDS011;6779;50.150;8.680;2022-07-15T01:38:27;2.20;;;1.30;;
13415;SDS011;6779;50.150;8.680;2022-07-15T01:40:54;1.53;;;1.20;;
13415;SDS011;6779;50.150;8.680;2022-07-15T01:43:20;1.87;;;1.10;;
13415;SDS011;6779;50.150;8.680;2022-07-15T01:45:46;1.53;;;1.20;;
13415;SDS011;6779;50.150;8.680;2022-07-15T01:48:12;1.20;;;1.10;;
13415;SDS011;6779;50.150;8.680;2022-07-15T01:50:57;1.37;;;1.27;;
13415;SDS011;6779;50.150;8.680;2022-07-15T01:53:24;1.20;;;1.10;;
13415;SDS011;6779;50.150;8.680;2022-07-15T01:55:51;1.97;;;1.73;;
13415;SDS011;6779;50.150;8.680;2022-07-15T01:58:17;1.60;;;1.20;;
13415;SDS011;6779;50.150;8.680;2022-07-15T02:00:43;1.30;;;1.20;;
13415;SDS011;6779;50.150;8.680;2022-07-15T02:03:09;2.17;;;1.27;;
13415;SDS011;6779;50.150;8.680;2022-07-15T02:05:35;1.87;;;1.43;;
13415;SDS011;6779;50.150;8.680;2022-07-15T02:08:01;1.33;;;1.23;;
13415;SDS011;6779;50.150;8.680;2022-07-15T02:10:28;1.97;;;1.27;;
13415;SDS011;6779;50.150;8.680;2022-07-15T02:13:08;1.83;;;1.37;;
13415;SDS011;6779;50.150;8.680;2022-07-15T02:15:37;1.83;;;1.40;;
13415;SDS011;6779;50.150;8.680;2022-07-15T02:18:04;1.30;;;1.20;;
13415;SDS011;6779;50.150;8.680;2022-07-15T02:20:31;2.00;;;1.10;;
13415;SDS011;6779;50.150;8.680;2022-07-15T02:22:57;2.77;;;1.23;;
13415;SDS011;6779;50.150;8.680;2022-07-15T02:25:27;1.37;;;1.27;;
13415;SDS011;6779;50.150;8.680;2022-07-15T02:27:55;1.47;;;1.23;;
13415;SDS011;6779;50.150;8.680;2022-07-15T02:30:25;2.43;;;1.20;;
13415;SDS011;6779;50.150;8.680;2022-07-15T02:32:54;1.87;;;1.33;;
13415;SDS011;6779;50.150;8.680;2022-07-15T02:35:21;1.07;;;0.90;;
13415;SDS011;6779;50.150;8.680;2022-07-15T02:37:46;1.57;;;1.37;;
13415;SDS011;6779;50.150;8.680;2022-07-15T02:40:12;1.97;;;1.30;;
13415;SDS011;6779;50.150;8.680;2022-07-15T02:42:38;3.03;;;1.30;;
13415;SDS011;6779;50.150;8.680;2022-07-15T02:45:04;1.37;;;1.23;;
13415;SDS011;6779;50.150;8.680;2022-07-15T02:47:31;1.53;;;1.03;;
13415;SDS011;6779;50.150;8.680;2022-07-15T02:49:56;1.70;;;1.27;;
13415;SDS011;6779;50.150;8.680;2022-07-15T02:52:22;2.17;;;1.40;;
13415;SDS011;6779;50.150;8.680;2022-07-15T02:54:48;2.27;;;1.30;;
13415;SDS011;6779;50.150;8.680;2022-07-15T02:57:14;3.30;;;1.50;;
13415;SDS011;6779;50.150;8.680;2022-07-15T02:59:40;1.73;;;1.63;;
13415;SDS011;6779;50.150;8.680;2022-07-15T03:02:05;1.67;;;1.47;;
13415;SDS011;6779;50.150;8.680;2022-07-15T03:04:31;1.93;;;1.20;;
13415;SDS011;6779;50.150;8.680;2022-07-15T03:06:57;1.57;;;1.43;;
13415;SDS011;6779;50.150;8.680;2022-07-15T03:09:22;2.97;;;1.30;;
13415;SDS011;6779;50.150;8.680;2022-07-15T03:11:48;2.47;;;1.20;;
13415;SDS011;6779;50.150;8.680;2022-07-15T03:14:13;2.23;;;1.37;;
13415;SDS011;6779;50.150;8.680;2022-07-15T03:16:39;1.33;;;1.23;;
13415;SDS011;6779;50.150;8.680;2022-07-15T03:19:05;2.03;;;1.50;;
13415;SDS011;6779;50.150;8.680;2022-07-15T03:21:30;1.10;;;1.00;;
13415;SDS011;6779;50.150;8.680;2022-07-15T03:23:56;2.90;;;1.30;;
13415;SDS011;6779;50.150;8.680;2022-07-15T03:26:22;1.57;;;1.47;;
13415;SDS011;6779;50.150;8.680;2022-07-15T03:28:47;1.57;;;1.07;;
13415;SDS011;6779;50.150;8.680;2022-07-15T03:31:13;1.33;;;1.10;;
13415;SDS011;6779;50.150;8.680;2022-07-15T03:33:39;1.20;;;1.10;;
13415;SDS011;6779;50.150;8.680;2022-07-15T03:36:05;0.67;;;0.67;;
13415;SDS011;6779;50.150;8.680;2022-07-15T03:38:31;3.30;;;1.30;;
13415;SDS011;6779;50.150;8.680;2022-07-15T03:40:57;2.97;;;1.90;;
13415;SDS011;6779;50.150;8.680;2022-07-15T03:43:23;1.17;;;1.00;;
13415;SDS011;6779;50.150;8.680;2022-07-15T03:45:52;1.70;;;1.37;;
13415;SDS011;6779;50.150;8.680;2022-07-15T03:48:18;2.70;;;1.30;;
13415;SDS011;6779;50.150;8.680;2022-07-15T03:50:43;3.57;;;1.60;;
13415;SDS011;6779;50.150;8.680;2022-07-15T03:53:09;4.50;;;1.70;;
13415;SDS011;6779;50.150;8.680;2022-07-15T03:55:35;2.93;;;1.40;;
13415;SDS011;6779;50.150;8.680;2022-07-15T03:58:03;1.47;;;1.17;;
13415;SDS011;6779;50.150;8.680;2022-07-15T04:00:28;3.53;;;1.63;;
13415;SDS011;6779;50.150;8.680;2022-07-15T04:02:54;2.57;;;1.27;;
13415;SDS011;6779;50.150;8.680;2022-07-15T04:05:20;3.90;;;1.40;;
13415;SDS011;6779;50.150;8.680;2022-07-15T04:07:46;1.33;;;1.00;;
13415;SDS011;6779;50.150;8.680;2022-07-15T04:10:12;1.97;;;1.27;;
13415;SDS011;6779;50.150;8.680;2022-07-15T04:12:38;1.03;;;1.00;;
13415;SDS011;6779;50.150;8.680;2022-07-15T04:15:04;1.37;;;1.20;;
13415;SDS011;6779;50.150;8.680;2022-07-15T04:17:30;2.27;;;1.20;;
13415;SDS011;6779;50.150;8.680;2022-07-15T04:19:56;1.60;;;1.30;;
13415;SDS011;6779;50.150;8.680;2022-07-15T04:22:21;1.50;;;1.40;;
13415;SDS011;6779;50.150;8.680;2022-07-15T04:24:47;2.30;;;1.10;;
13415;SDS011;6779;50.150;8.680;2022-07-15T04:27:12;1.30;;;1.10;;
13415;SDS011;6779;50.150;8.680;2022-07-15T04:29:38;2.00;;;1.50;;
13415;SDS011;6779;50.150;8.680;2022-07-15T04:32:04;1.70;;;1.13;;
13415;SDS011;6779;50.150;8.680;2022-07-15T04:34:30;2.20;;;1.33;;
13415;SDS011;6779;50.150;8.680;2022-07-15T04:36:55;2.00;;;1.20;;
13415;SDS011;6779;50.150;8.680;2022-07-15T04:39:21;3.83;;;1.23;;
13415;SDS011;6779;50.150;8.680;2022-07-15T04:41:46;1.50;;;1.37;;
13415;SDS011;6779;50.150;8.680;2022-07-15T04:44:12;2.70;;;1.70;;
13415;SDS011;6779;50.150;8.680;2022-07-15T04:46:37;3.13;;;1.40;;
13415;SDS011;6779;50.150;8.680;2022-07-15T04:49:03;1.23;;;1.13;;
13415;SDS011;6779;50.150;8.680;2022-07-15T04:51:47;1.33;;;1.23;;
13415;SDS011;6779;50.150;8.680;2022-07-15T04:54:13;1.87;;;1.23;;
13415;SDS011;6779;50.150;8.680;2022-07-15T04:56:38;1.53;;;1.10;;
13415;SDS011;6779;50.150;8.680;2022-07-15T04:59:04;1.60;;;1.43;;
13415;SDS011;6779;50.150;8.680;2022-07-15T05:01:29;2.60;;;1.50;;
13415;SDS011;6779;50.150;8.680;2022-07-15T05:03:55;2.00;;;1.20;;
13415;SDS011;6779;50.150;8.680;2022-07-15T05:06:21;3.73;;;1.17;;
13415;SDS011;6779;50.150;8.680;2022-07-15T05:08:46;1.47;;;1.17;;
13415;SDS011;6779;50.150;8.680;2022-07-15T05:11:12;1.80;;;1.00;;
13415;SDS011;6779;50.150;8.680;2022-07-15T05:13:38;1.60;;;1.20;;
13415;SDS011;6779;50.150;8.680;2022-07-15T05:16:04;3.67;;;1.50;;
13415;SDS011;6779;50.150;8.680;2022-07-15T05:18:30;1.50;;;1.40;;
13415;SDS011;6779;50.150;8.680;2022-07-15T05:20:56;1.40;;;1.30;;
13415;SDS011;6779;50.150;8.680;2022-07-15T05:23:21;1.47;;;1.13;;
13415;SDS011;6779;50.150;8.680;2022-07-15T05:25:47;1.40;;;1.30;;
13415;SDS011;6779;50.150;8.680;2022-07-15T05:28:12;1.37;;;1.27;;
13415;SDS011;6779;50.150;8.680;2022-07-15T05:30:38;1.47;;;1.33;;
13415;SDS011;6779;50.150;8.680;2022-07-15T05:33:04;2.67;;;1.60;;
13415;SDS011;6779;50.150;8.680;2022-07-15T05:35:30;1.97;;;1.13;;
13415;SDS011;6779;50.150;8.680;2022-07-15T05:37:55;1.13;;;1.03;;
13415;SDS011;6779;50.150;8.680;2022-07-15T05:40:21;1.10;;;1.00;;
13415;SDS011;6779;50.150;8.680;2022-07-15T05:42:46;1.63;;;1.30;;
13415;SDS011;6779;50.150;8.680;2022-07-15T05:45:12;2.30;;;1.17;;
13415;SDS011;6779;50.150;8.680;2022-07-15T05:47:37;1.30;;;1.20;;
13415;SDS011;6779;50.150;8.680;2022-07-15T05:50:03;1.33;;;1.23;;
13415;SDS011;6779;50.150;8.680;2022-07-15T05:52:31;2.20;;;1.10;;
13415;SDS011;6779;50.150;8.680;2022-07-15T05:54:57;3.90;;;1.40;;
13415;SDS011;6779;50.150;8.680;2022-07-15T05:57:22;1.03;;;0.97;;
13415;SDS011;6779;50.150;8.680;2022-07-15T05:59:48;2.43;;;1.10;;
13415;SDS011;6779;50.150;8.680;2022-07-15T06:02:13;2.30;;;1.40;;
13415;SDS011;6779;50.150;8.680;2022-07-15T06:04:39;1.23;;;1.13;;
13415;SDS011;6779;50.150;8.680;2022-07-15T06:07:05;2.60;;;1.50;;
13415;SDS011;6779;50.150;8.680;2022-07-15T06:09:31;2.83;;;1.00;;
13415;SDS011;6779;50.150;8.680;2022-07-15T06:11:56;2.30;;;0.93;;
13415;SDS011;6779;50.150;8.680;2022-07-15T06:14:23;1.57;;;1.47;;
13415;SDS011;6779;50.150;8.680;2022-07-15T06:16:49;2.40;;;1.40;;
13415;SDS011;6779;50.150;8.680;2022-07-15T06:19:14;1.30;;;1.20;;
13415;SDS011;6779;50.150;8.680;2022-07-15T06:21:40;2.90;;;1.20;;
13415;SDS011;6779;50.150;8.680;2022-07-15T06:24:06;3.57;;;1.20;;
13415;SDS011;6779;50.150;8.680;2022-07-15T06:26:31;2.30;;;1.20;;
13415;SDS011;6779;50.150;8.680;2022-07-15T06:28:57;1.40;;;1.10;;
13415;SDS011;6779;50.150;8.680;2022-07-15T06:31:22;1.67;;;1.30;;
13415;SDS011;6779;50.150;8.680;2022-07-15T06:33:48;2.10;;;1.50;;
13415;SDS011;6779;50.150;8.680;2022-07-15T06:36:14;1.20;;;1.10;;
13415;SDS011;6779;50.150;8.680;2022-07-15T06:38:40;2.17;;;1.30;;
13415;SDS011;6779;50.150;8.680;2022-07-15T06:41:05;2.07;;;1.00;;
13415;SDS011;6779;50.150;8.680;2022-07-15T06:43:31;1.73;;;1.20;;
13415;SDS011;6779;50.150;8.680;2022-07-15T06:45:56;2.63;;;1.13;;
13415;SDS011;6779;50.150;8.680;2022-07-15T06:48:22;1.50;;;1.13;;
13415;SDS011;6779;50.150;8.680;2022-07-15T06:50:48;2.00;;;1.00;;
13415;SDS011;6779;50.150;8.680;2022-07-15T06:53:13;2.30;;;1.40;;
13415;SDS011;6779;50.150;8.680;2022-07-15T06:55:39;2.00;;;1.50;;
13415;SDS011;6779;50.150;8.680;2022-07-15T06:58:05;2.37;;;1.00;;
13415;SDS011;6779;50.150;8.680;2022-07-15T07:00:30;1.03;;;0.83;;
13415;SDS011;6779;50.150;8.680;2022-07-15T07:02:56;1.73;;;1.00;;
13415;SDS011;6779;50.150;8.680;2022-07-15T07:05:21;1.83;;;1.20;;
13415;SDS011;6779;50.150;8.680;2022-07-15T07:07:47;1.20;;;1.00;;
13415;SDS011;6779;50.150;8.680;2022-07-15T07:10:12;1.70;;;1.10;;
13415;SDS011;6779;50.150;8.680;2022-07-15T07:12:38;1.00;;;0.73;;
13415;SDS011;6779;50.150;8.680;2022-07-15T07:15:04;3.60;;;1.33;;
13415;SDS011;6779;50.150;8.680;2022-07-15T07:17:32;1.23;;;0.90;;
13415;SDS011;6779;50.150;8.680;2022-07-15T07:19:58;3.00;;;1.13;;
13415;SDS011;6779;50.150;8.680;2022-07-15T07:22:23;1.20;;;1.07;;
13415;SDS011;6779;50.150;8.680;2022-07-15T07:24:49;2.00;;;1.00;;
13415;SDS011;6779;50.150;8.680;2022-07-15T07:27:14;2.50;;;1.10;;
13415;SDS011;6779;50.150;8.680;2022-07-15T07:29:40;2.43;;;1.37;;
13415;SDS011;6779;50.150;8.680;2022-07-15T07:32:06;2.67;;;1.40;;
13415;SDS011;6779;50.150;8.680;2022-07-15T07:34:31;1.17;;;1.07;;
13415;SDS011;6779;50.150;8.680;2022-07-15T07:36:57;1.23;;;1.10;;
13415;SDS011;6779;50.150;8.680;2022-07-15T07:39:23;1.30;;;1.07;;
13415;SDS011;6779;50.150;8.680;2022-07-15T07:41:49;1.37;;;1.23;;
13415;SDS011;6779;50.150;8.680;2022-07-15T07:44:18;1.33;;;1.17;;
13415;SDS011;6779;50.150;8.680;2022-07-15T07:46:47;1.30;;;1.20;;
13415;SDS011;6779;50.150;8.680;2022-07-15T07:49:13;1.10;;;1.00;;
13415;SDS011;6779;50.150;8.680;2022-07-15T07:51:39;3.00;;;1.40;;
13415;SDS011;6779;50.150;8.680;2022-07-15T07:54:06;1.83;;;1.03;;
13415;SDS011;6779;50.150;8.680;2022-07-15T07:56:32;3.63;;;1.33;;
13415;SDS011;6779;50.150;8.680;2022-07-15T07:58:57;3.03;;;1.10;;
13415;SDS011;6779;50.150;8.680;2022-07-15T08:01:23;1.87;;;1.17;;
13415;SDS011;6779;50.150;8.680;2022-07-15T08:03:49;2.17;;;1.53;;
13415;SDS011;6779;50.150;8.680;2022-07-15T08:06:16;2.17;;;1.30;;
13415;SDS011;6779;50.150;8.680;2022-07-15T08:08:42;2.30;;;1.50;;
13415;SDS011;6779;50.150;8.680;2022-07-15T08:11:09;1.43;;;1.30;;
13415;SDS011;6779;50.150;8.680;2022-07-15T08:13:35;3.97;;;1.33;;
13415;SDS011;6779;50.150;8.680;2022-07-15T08:16:01;1.53;;;1.43;;
13415;SDS011;6779;50.150;8.680;2022-07-15T08:18:27;1.97;;;1.30;;
13415;SDS011;6779;50.150;8.680;2022-07-15T08:20:53;1.30;;;1.20;;
13415;SDS011;6779;50.150;8.680;2022-07-15T08:23:19;2.37;;;1.37;;
13415;SDS011;6779;50.150;8.680;2022-07-15T08:25:48;3.20;;;1.40;;
13415;SDS011;6779;50.150;8.680;2022-07-15T08:28:15;1.90;;;1.20;;
13415;SDS011;6779;50.150;8.680;2022-07-15T08:30:40;1.77;;;1.27;;
13415;SDS011;6779;50.150;8.680;2022-07-15T08:33:06;3.40;;;1.50;;
13415;SDS011;6779;50.150;8.680;2022-07-15T08:35:32;1.73;;;1.60;;
13415;SDS011;6779;50.150;8.680;2022-07-15T08:37:59;2.00;;;1.40;;
13415;SDS011;6779;50.150;8.680;2022-07-15T08:40:30;1.90;;;1.57;;
13415;SDS011;6779;50.150;8.680;2022-07-15T08:42:56;3.60;;;1.67;;
13415;SDS011;6779;50.150;8.680;2022-07-15T08:45:22;1.40;;;1.30;;
13415;SDS011;6779;50.150;8.680;2022-07-15T08:47:48;3.57;;;1.50;;
13415;SDS011;6779;50.150;8.680;2022-07-15T08:50:16;1.20;;;1.10;;
13415;SDS011;6779;50.150;8.680;2022-07-15T08:52:44;1.83;;;1.50;;
13415;SDS011;6779;50.150;8.680;2022-07-15T08:55:11;1.20;;;1.10;;
13415;SDS011;6779;50.150;8.680;2022-07-15T08:57:38;2.80;;;1.50;;
13415;SDS011;6779;50.150;8.680;2022-07-15T09:00:04;3.60;;;1.70;;
13415;SDS011;6779;50.150;8.680;2022-07-15T09:02:36;1.40;;;1.30;;
13415;SDS011;6779;50.150;8.680;2022-07-15T09:05:16;1.70;;;1.40;;
13415;SDS011;6779;50.150;8.680;2022-07-15T09:07:50;2.27;;;1.67;;
13415;SDS011;6779;50.150;8.680;2022-07-15T09:10:18;3.53;;;1.67;;
13415;SDS011;6779;50.150;8.680;2022-07-15T09:12:47;1.83;;;1.53;;
13415;SDS011;6779;50.150;8.680;2022-07-15T09:15:28;3.43;;;2.07;;
13415;SDS011;6779;50.150;8.680;2022-07-15T09:18:11;4.00;;;2.00;;
13415;SDS011;6779;50.150;8.680;2022-07-15T09:20:43;2.07;;;1.70;;
13415;SDS011;6779;50.150;8.680;2022-07-15T09:23:10;3.63;;;2.30;;
13415;SDS011;6779;50.150;8.680;2022-07-15T09:25:38;2.47;;;1.90;;
13415;SDS011;6779;50.150;8.680;2022-07-15T09:28:05;2.97;;;1.70;;
13415;SDS011;6779;50.150;8.680;2022-07-15T09:30:35;2.77;;;1.73;;
13415;SDS011;6779;50.150;8.680;2022-07-15T09:33:25;3.00;;;1.73;;
13415;SDS011;6779;50.150;8.680;2022-07-15T09:36:14;2.57;;;2.00;;
13415;SDS011;6779;50.150;8.680;2022-07-15T09:43:53;2.63;;;1.80;;
13415;SDS011;6779;50.150;8.680;2022-07-15T09:46:22;4.33;;;2.00;;
13415;SDS011;6779;50.150;8.680;2022-07-15T09:48:50;2.93;;;2.30;;
13415;SDS011;6779;50.150;8.680;2022-07-15T09:51:17;2.37;;;1.80;;
13415;SDS011;6779;50.150;8.680;2022-07-15T09:53:43;2.93;;;2.00;;
13415;SDS011;6779;50.150;8.680;2022-07-15T09:56:10;2.00;;;1.80;;
13415;SDS011;6779;50.150;8.680;2022-07-15T09:58:39;1.77;;;1.60;;
13415;SDS011;6779;50.150;8.680;2022-07-15T10:01:07;2.70;;;2.05;;
13415;SDS011;6779;50.150;8.680;2022-07-15T10:03:34;1.85;;;1.65;;
13415;SDS011;6779;50.150;8.680;2022-07-15T10:06:01;1.83;;;1.70;;
13415;SDS011;6779;50.150;8.680;2022-07-15T10:08:28;3.20;;;1.98;;
13415;SDS011;6779;50.150;8.680;2022-07-15T10:10:56;2.97;;;1.75;;
13415;SDS011;6779;50.150;8.680;2022-07-15T10:18:58;1.60;;;1.50;;
13415;SDS011;6779;50.150;8.680;2022-07-15T10:24:24;2.13;;;1.48;;
13415;SDS011;6779;50.150;8.680;2022-07-15T10:29:35;2.40;;;1.70;;
13415;SDS011;6779;50.150;8.680;2022-07-15T10:32:01;1.70;;;1.60;;
13415;SDS011;6779;50.150;8.680;2022-07-15T10:34:36;3.22;;;2.10;;
13415;SDS011;6779;50.150;8.680;2022-07-15T10:37:08;2.13;;;1.70;;
13415;SDS011;6779;50.150;8.680;2022-07-15T10:39:49;2.20;;;1.73;;
13415;SDS011;6779;50.150;8.680;2022-07-15T10:42:17;1.48;;;1.38;;
13415;SDS011;6779;50.150;8.680;2022-07-15T10:44:48;3.53;;;1.95;;
13415;SDS011;6779;50.150;8.680;2022-07-15T10:47:28;2.10;;;1.77;;
13415;SDS011;6779;50.150;8.680;2022-07-15T10:49:53;1.95;;;1.75;;
13415;SDS011;6779;50.150;8.680;2022-07-15T10:52:20;3.85;;;2.00;;
13415;SDS011;6779;50.150;8.680;2022-07-15T10:57:14;4.80;;;2.00;;
13415;SDS011;6779;50.150;8.680;2022-07-15T10:59:49;4.07;;;2.07;;
13415;SDS011;6779;50.150;8.680;2022-07-15T11:02:16;2.30;;;1.83;;
13415;SDS011;6779;50.150;8.680;2022-07-15T11:04:43;3.63;;;2.03;;
13415;SDS011;6779;50.150;8.680;2022-07-15T11:09:51;2.77;;;2.40;;
13415;SDS011;6779;50.150;8.680;2022-07-15T11:17:28;2.03;;;1.80;;
13415;SDS011;6779;50.150;8.680;2022-07-15T11:22:46;2.07;;;1.90;;
13415;SDS011;6779;50.150;8.680;2022-07-15T11:25:20;2.37;;;2.17;;
13415;SDS011;6779;50.150;8.680;2022-07-15T11:28:15;2.27;;;2.07;;
13415;SDS011;6779;50.150;8.680;2022-07-15T11:30:46;2.33;;;1.87;;
13415;SDS011;6779;50.150;8.680;2022-07-15T11:33:18;3.30;;;1.70;;
13415;SDS011;6779;50.150;8.680;2022-07-15T11:35:49;2.43;;;2.10;;
13415;SDS011;6779;50.150;8.680;2022-07-15T11:38:18;1.70;;;1.60;;
13415;SDS011;6779;50.150;8.680;2022-07-15T11:40:50;1.87;;;1.73;;
13415;SDS011;6779;50.150;8.680;2022-07-15T11:43:56;3.67;;;1.60;;
13415;SDS011;6779;50.150;8.680;2022-07-15T11:46:45;3.03;;;2.10;;
13415;SDS011;6779;50.150;8.680;2022-07-15T11:49:16;2.67;;;1.70;;
13415;SDS011;6779;50.150;8.680;2022-07-15T11:51:57;3.47;;;1.80;;
13415;SDS011;6779;50.150;8.680;2022-07-15T11:54:23;1.77;;;1.67;;
13415;SDS011;6779;50.150;8.680;2022-07-15T11:56:53;2.77;;;1.60;;
13415;SDS011;6779;50.150;8.680;2022-07-15T11:59:24;2.25;;;1.52;;
13415;SDS011;6779;50.150;8.680;2022-07-15T12:02:09;2.75;;;1.52;;
13415;SDS011;6779;50.150;8.680;2022-07-15T12:04:36;1.80;;;1.40;;
13415;SDS011;6779;50.150;8.680;2022-07-15T12:07:02;2.20;;;1.55;;
13415;SDS011;6779;50.150;8.680;2022-07-15T12:12:13;3.38;;;1.88;;
13415;SDS011;6779;50.150;8.680;2022-07-15T12:14:40;2.15;;;1.95;;
13415;SDS011;6779;50.150;8.680;2022-07-15T12:17:07;2.33;;;1.58;;
13415;SDS011;6779;50.150;8.680;2022-07-15T12:19:33;2.20;;;1.63;;
13415;SDS011;6779;50.150;8.680;2022-07-15T12:22:01;2.13;;;1.70;;
13415;SDS011;6779;50.150;8.680;2022-07-15T12:24:38;3.23;;;1.73;;
13415;SDS011;6779;50.150;8.680;2022-07-15T12:27:07;2.23;;;1.70;;
13415;SDS011;6779;50.150;8.680;2022-07-15T12:29:33;2.73;;;2.17;;
13415;SDS011;6779;50.150;8.680;2022-07-15T12:32:07;3.07;;;1.93;;
13415;SDS011;6779;50.150;8.680;2022-07-15T12:37:18;3.30;;;1.63;;
13415;SDS011;6779;50.150;8.680;2022-07-15T12:40:03;1.60;;;1.50;;
13415;SDS011;6779;50.150;8.680;2022-07-15T12:42:30;1.93;;;1.50;;
13415;SDS011;6779;50.150;8.680;2022-07-15T12:53:12;2.63;;;1.73;;
13415;SDS011;6779;50.150;8.680;2022-07-15T12:55:48;2.03;;;1.70;;
13415;SDS011;6779;50.150;8.680;2022-07-15T12:58:16;2.27;;;1.40;;
13415;SDS011;6779;50.150;8.680;2022-07-15T13:00:48;2.03;;;1.70;;
13415;SDS011;6779;50.150;8.680;2022-07-15T13:03:15;1.43;;;1.33;;
13415;SDS011;6779;50.150;8.680;2022-07-15T13:05:45;3.33;;;1.40;;
13415;SDS011;6779;50.150;8.680;2022-07-15T13:08:13;2.07;;;1.70;;
13415;SDS011;6779;50.150;8.680;2022-07-15T13:10:42;1.67;;;1.43;;
13415;SDS011;6779;50.150;8.680;2022-07-15T13:13:14;1.60;;;1.27;;
13415;SDS011;6779;50.150;8.680;2022-07-15T13:15:42;1.80;;;1.37;;
13415;SDS011;6779;50.150;8.680;2022-07-15T13:18:08;2.00;;;1.20;;
13415;SDS011;6779;50.150;8.680;2022-07-15T13:20:34;1.40;;;1.30;;
13415;SDS011;6779;50.150;8.680;2022-07-15T13:23:00;1.70;;;1.30;;
13415;SDS011;6779;50.150;8.680;2022-07-15T13:25:27;1.30;;;1.20;;
13415;SDS011;6779;50.150;8.680;2022-07-15T13:27:54;2.07;;;1.53;;
13415;SDS011;6779;50.150;8.680;2022-07-15T13:30:20;1.27;;;1.20;;
13415;SDS011;6779;50.150;8.680;2022-07-15T13:32:45;1.00;;;1.00;;
13415;SDS011;6779;50.150;8.680;2022-07-15T13:35:12;1.87;;;1.27;;
13415;SDS011;6779;50.150;8.680;2022-07-15T13:37:38;1.03;;;1.03;;
13415;SDS011;6779;50.150;8.680;2022-07-15T13:40:06;1.80;;;1.20;;
13415;SDS011;6779;50.150;8.680;2022-07-15T13:42:33;2.80;;;1.20;;
13415;SDS011;6779;50.150;8.680;2022-07-15T13:44:58;1.87;;;1.20;;
13415;SDS011;6779;50.150;8.680;2022-07-15T13:47:25;1.20;;;1.10;;
13415;SDS011;6779;50.150;8.680;2022-07-15T13:49:51;1.10;;;1.00;;
13415;SDS011;6779;50.150;8.680;2022-07-15T13:52:46;1.30;;;1.20;;
13415;SDS011;6779;50.150;8.680;2022-07-15T13:55:13;1.60;;;1.50;;
13415;SDS011;6779;50.150;8.680;2022-07-15T13:57:40;1.77;;;1.30;;
13415;SDS011;6779;50.150;8.680;2022-07-15T14:00:07;2.70;;;1.30;;
13415;SDS011;6779;50.150;8.680;2022-07-15T14:02:36;2.33;;;1.40;;
13415;SDS011;6779;50.150;8.680;2022-07-15T14:05:03;2.23;;;1.30;;
13415;SDS011;6779;50.150;8.680;2022-07-15T14:07:30;1.13;;;1.00;;
13415;SDS011;6779;50.150;8.680;2022-07-15T14:09:56;3.27;;;1.17;;
13415;SDS011;6779;50.150;8.680;2022-07-15T14:12:22;1.33;;;1.23;;
13415;SDS011;6779;50.150;8.680;2022-07-15T14:14:47;1.30;;;1.20;;
13415;SDS011;6779;50.150;8.680;2022-07-15T14:17:13;1.63;;;1.23;;
13415;SDS011;6779;50.150;8.680;2022-07-15T14:19:38;1.43;;;1.30;;
13415;SDS011;6779;50.150;8.680;2022-07-15T14:22:04;2.50;;;0.93;;
13415;SDS011;6779;50.150;8.680;2022-07-15T14:24:29;1.17;;;1.07;;
13415;SDS011;6779;50.150;8.680;2022-07-15T14:26:55;1.23;;;1.13;;
13415;SDS011;6779;50.150;8.680;2022-07-15T14:29:21;2.43;;;0.93;;
13415;SDS011;6779;50.150;8.680;2022-07-15T14:31:47;1.13;;;1.03;;
13415;SDS011;6779;50.150;8.680;2022-07-15T14:34:12;1.80;;;1.10;;
13415;SDS011;6779;50.150;8.680;2022-07-15T14:36:38;0.90;;;0.90;;
13415;SDS011;6779;50.150;8.680;2022-07-15T14:39:04;4.03;;;1.57;;
13415;SDS011;6779;50.150;8.680;2022-07-15T14:41:29;1.77;;;0.90;;
13415;SDS011;6779;50.150;8.680;2022-07-15T14:43:55;1.33;;;1.10;;
13415;SDS011;6779;50.150;8.680;2022-07-15T14:46:21;1.10;;;1.00;;
13415;SDS011;6779;50.150;8.680;2022-07-15T14:48:47;1.60;;;1.07;;
13415;SDS011;6779;50.150;8.680;2022-07-15T14:51:13;1.70;;;1.13;;
13415;SDS011;6779;50.150;8.680;2022-07-15T14:53:38;2.10;;;1.07;;
13415;SDS011;6779;50.150;8.680;2022-07-15T14:56:04;1.57;;;0.87;;
13415;SDS011;6779;50.150;8.680;2022-07-15T14:58:30;1.30;;;0.90;;
13415;SDS011;6779;50.150;8.680;2022-07-15T15:00:56;1.03;;;0.93;;
13415;SDS011;6779;50.150;8.680;2022-07-15T15:03:21;1.10;;;1.00;;
13415;SDS011;6779;50.150;8.680;2022-07-15T15:05:47;1.70;;;1.17;;
13415;SDS011;6779;50.150;8.680;2022-07-15T15:08:13;2.93;;;1.10;;
13415;SDS011;6779;50.150;8.680;2022-07-15T15:10:39;1.43;;;0.93;;
13415;SDS011;6779;50.150;8.680;2022-07-15T15:13:05;2.20;;;0.90;;
13415;SDS011;6779;50.150;8.680;2022-07-15T15:15:30;1.00;;;0.90;;
13415;SDS011;6779;50.150;8.680;2022-07-15T15:17:56;0.93;;;0.80;;
13415;SDS011;6779;50.150;8.680;2022-07-15T15:20:21;0.87;;;0.80;;
13415;SDS011;6779;50.150;8.680;2022-07-15T15:22:47;1.93;;;1.30;;
13415;SDS011;6779;50.150;8.680;2022-07-15T15:25:13;0.90;;;0.83;;
13415;SDS011;6779;50.150;8.680;2022-07-15T15:27:38;1.83;;;1.20;;
13415;SDS011;6779;50.150;8.680;2022-07-15T15:30:05;1.20;;;1.00;;
13415;SDS011;6779;50.150;8.680;2022-07-15T15:32:32;1.60;;;0.90;;
13415;SDS011;6779;50.150;8.680;2022-07-15T15:34:57;2.10;;;1.10;;
13415;SDS011;6779;50.150;8.680;2022-07-15T15:37:23;1.37;;;1.00;;
13415;SDS011;6779;50.150;8.680;2022-07-15T15:39:49;2.17;;;1.00;;
13415;SDS011;6779;50.150;8.680;2022-07-15T15:42:14;1.23;;;0.90;;
13415;SDS011;6779;50.150;8.680;2022-07-15T15:44:40;1.20;;;1.03;;